Time;durP1;ratioP1;P1;durP2;ratioP2;P2;SDS_P1;SDS_P2;PMS_P1;PMS_P2;Temp;Humidity;BMP_temperature;BMP_pressure;BME280_temperature;BME280_humidity;BME280_pressure;Samples;Min_cycle;Max_cycle;Signal;HPM_P1;HPM_P2
2021/11/09 00:00:45;;;;;;;;;;;;;;;6.10;61.13;100692.75;4407354;32;32640;-92
2021/11/09 00:03:43;;;;;;;;;;;;;;;5.91;61.65;100707.78;4404455;32;32886;-91
2021/11/09 00:06:24;;;;;;;;;;;;;;;5.84;61.51;100699.13;4351866;32;32147;-95
2021/11/09 00:09:17;;;;;;;;;;;;;;;5.74;62.04;100694.81;4415606;32;33889;-93
2021/11/09 00:11:57;;;;;;;;;;;;;;;6.02;61.47;100691.97;4391755;32;33772;-94
2021/11/09 00:14:49;;;;;;;;;;;;;;;5.86;61.85;100696.47;4376964;32;33209;-94
2021/11/09 00:17:28;;;;;;;;;;;;;;;5.78;62.23;100691.31;4393143;32;33171;-94
2021/11/09 00:20:21;;;;;;;;;;;;;;;5.95;62.01;100690.31;4420369;32;32867;-92
2021/11/09 00:22:49;;;;;;;;;;;;;;;5.81;62.09;100693.91;4398330;32;33062;-95
2021/11/09 00:25:40;;;;;;;;;;;;;;;5.72;62.62;100696.59;4385447;32;32723;-95
2021/11/09 00:28:23;;;;;;;;;;;;;;;5.60;63.10;100701.94;4409106;32;32030;-95
2021/11/09 00:31:14;;;;;;;;;;;;;;;5.72;63.62;100700.97;4392465;32;32337;-95
2021/11/09 00:33:53;;;;;;;;;;;;;;;5.71;63.10;100699.25;4406751;32;34010;-92
2021/11/09 00:36:44;;;;;;;;;;;;;;;5.58;63.60;100699.34;4416381;32;33287;-92
2021/11/09 00:39:23;;;;;;;;;;;;;;;5.60;63.87;100704.56;4414592;32;33328;-95
2021/11/09 00:42:14;;;;;;;;;;;;;;;5.59;64.52;100706.31;4411640;32;33642;-93
2021/11/09 00:45:06;;;;;;;;;;;;;;;5.85;64.36;100705.22;4359565;32;32410;-93
2021/11/09 00:47:58;;;;;;;;;;;;;;;5.87;64.14;100706.06;4379622;32;32299;-95
2021/11/09 00:50:38;;;;;;;;;;;;;;;6.19;63.15;100703.16;4389601;32;32044;-95
2021/11/09 00:57:32;;;;;;;;;;;;;;;6.11;63.45;100704.97;4397429;32;35977;-94
2021/11/09 01:00:17;;;;;;;;;;;;;;;6.07;63.07;100711.13;4404716;32;33361;-94
2021/11/09 01:03:10;;;;;;;;;;;;;;;6.07;62.66;100714.63;4408358;32;31707;-94
2021/11/09 01:05:52;;;;;;;;;;;;;;;6.25;62.05;100707.44;4400133;32;33131;-91
2021/11/09 01:08:35;;;;;;;;;;;;;;;6.19;62.41;100718.00;4365101;32;33015;-89
2021/11/09 01:11:02;;;;;;;;;;;;;;;6.22;62.42;100713.59;4368001;32;34315;-90
2021/11/09 01:14:03;;;;;;;;;;;;;;;6.27;62.26;100711.81;4370459;32;33055;-90
2021/11/09 01:16:32;;;;;;;;;;;;;;;6.00;62.69;100718.22;4358511;32;34108;-90
2021/11/09 01:19:04;;;;;;;;;;;;;;;5.91;63.45;100728.75;4349485;32;33393;-89
2021/11/09 01:21:32;;;;;;;;;;;;;;;5.84;63.87;100729.69;4340794;32;33644;-90
2021/11/09 01:24:00;;;;;;;;;;;;;;;6.04;63.36;100735.66;4351017;32;31698;-89
2021/11/09 01:26:28;;;;;;;;;;;;;;;6.21;62.56;100730.22;4350725;32;32735;-89
2021/11/09 01:28:57;;;;;;;;;;;;;;;6.26;61.90;100731.03;4351440;32;33312;-90
2021/11/09 01:31:37;;;;;;;;;;;;;;;6.14;61.66;100737.28;4379852;32;33033;-92
2021/11/09 01:34:16;;;;;;;;;;;;;;;5.86;62.20;100731.41;4387767;32;32834;-91
2021/11/09 01:37:07;;;;;;;;;;;;;;;5.94;61.98;100733.16;4397739;32;32689;-92
2021/11/09 01:40:06;;;;;;;;;;;;;;;5.94;62.06;100734.00;4394991;32;32930;-92
2021/11/09 01:43:29;;;;;;;;;;;;;;;6.04;61.62;100733.03;4403948;32;32562;-91
2021/11/09 01:46:09;;;;;;;;;;;;;;;5.94;61.77;100738.37;4406114;32;31870;-91
2021/11/09 01:48:49;;;;;;;;;;;;;;;6.03;61.56;100733.91;4377766;32;34184;-91
2021/11/09 01:51:29;;;;;;;;;;;;;;;6.08;61.37;100733.88;4365204;32;32876;-91
2021/11/09 01:54:21;;;;;;;;;;;;;;;5.68;61.90;100733.34;4371199;32;33288;-90
2021/11/09 01:57:00;;;;;;;;;;;;;;;5.85;61.13;100742.78;4397415;32;31717;-90
2021/11/09 01:59:51;;;;;;;;;;;;;;;5.89;60.88;100746.25;4392004;32;34300;-91
2021/11/09 02:02:21;;;;;;;;;;;;;;;5.68;61.16;100739.44;4384697;32;36905;-91
2021/11/09 02:04:49;;;;;;;;;;;;;;;5.50;61.96;100739.59;4401128;32;33911;-93
2021/11/09 02:07:28;;;;;;;;;;;;;;;5.63;61.56;100746.47;4389411;32;32378;-96
2021/11/09 02:10:25;;;;;;;;;;;;;;;5.61;61.54;100750.88;4426221;32;34891;-92
2021/11/09 02:13:05;;;;;;;;;;;;;;;5.57;61.37;100749.16;4390507;32;32569;-93
2021/11/09 02:15:57;;;;;;;;;;;;;;;5.60;61.04;100746.50;4392896;32;34986;-92
2021/11/09 02:18:39;;;;;;;;;;;;;;;5.52;61.63;100756.19;4415226;32;31375;-92
2021/11/09 02:21:31;;;;;;;;;;;;;;;5.78;60.64;100753.31;4355873;32;33488;-93
2021/11/09 02:24:10;;;;;;;;;;;;;;;5.46;61.51;100757.09;4419316;32;34728;-93
2021/11/09 02:27:01;;;;;;;;;;;;;;;5.39;61.84;100760.62;4405076;32;34087;-93
2021/11/09 02:29:42;;;;;;;;;;;;;;;5.43;61.41;100766.72;4431314;32;32376;-92
2021/11/09 02:32:33;;;;;;;;;;;;;;;5.34;61.27;100763.28;4431777;32;33575;-90
2021/11/09 02:35:00;;;;;;;;;;;;;;;5.28;61.57;100762.47;4433156;32;32716;-91
2021/11/09 02:37:33;;;;;;;;;;;;;;;5.47;61.17;100773.69;4416112;32;34238;-91
2021/11/09 02:40:03;;;;;;;;;;;;;;;5.26;61.97;100772.94;4433148;32;33352;-91
2021/11/09 02:42:31;;;;;;;;;;;;;;;5.14;62.70;100778.25;4431656;32;33697;-93
2021/11/09 02:45:37;;;;;;;;;;;;;;;5.17;62.03;100773.00;4378153;32;35468;-93
2021/11/09 02:48:42;;;;;;;;;;;;;;;5.24;61.73;100779.94;4394647;32;34137;-93
2021/11/09 02:51:35;;;;;;;;;;;;;;;5.37;61.57;100779.00;4408265;32;32116;-92
2021/11/09 02:57:10;;;;;;;;;;;;;;;5.00;62.41;100795.78;4418936;32;32798;-94
2021/11/09 03:00:06;;;;;;;;;;;;;;;5.09;61.94;100798.38;4366626;32;32665;-94
2021/11/09 03:03:04;;;;;;;;;;;;;;;4.98;62.02;100789.69;4385863;32;31717;-94
2021/11/09 03:05:49;;;;;;;;;;;;;;;4.88;62.53;100797.56;4429441;32;34057;-94
2021/11/09 03:08:52;;;;;;;;;;;;;;;4.97;62.52;100794.03;4381637;32;32857;-94
2021/11/09 03:11:32;;;;;;;;;;;;;;;4.76;63.40;100796.78;4410033;32;32815;-93
2021/11/09 03:14:25;;;;;;;;;;;;;;;5.09;62.08;100798.38;4382780;32;33818;-92
2021/11/09 03:17:13;;;;;;;;;;;;;;;5.14;61.19;100797.44;4381179;32;33082;-93
2021/11/09 03:20:04;;;;;;;;;;;;;;;4.72;62.40;100805.50;4386936;32;33954;-93
2021/11/09 03:40:48;;;;;;;;;;;;;;;4.78;62.07;100824.66;4392411;32;34178;-90
2021/11/09 03:46:02;;;;;;;;;;;;;;;4.75;62.30;100823.81;4394107;32;33536;-90
2021/11/09 03:48:30;;;;;;;;;;;;;;;4.89;62.09;100811.56;4393249;32;31693;-89
2021/11/09 03:51:00;;;;;;;;;;;;;;;4.81;62.17;100818.56;4393197;32;34046;-95
2021/11/09 03:53:57;;;;;;;;;;;;;;;4.94;61.88;100821.97;4389660;32;33725;-92
2021/11/09 03:56:40;;;;;;;;;;;;;;;5.02;61.00;100828.91;4428345;32;33848;-92
2021/11/09 04:05:39;;;;;;;;;;;;;;;4.94;61.15;100840.28;4379115;32;33037;-92
2021/11/09 04:12:22;;;;;;;;;;;;;;;4.80;62.06;100849.09;4366523;32;32061;-91
2021/11/09 04:14:34;;;;;;;;;;;;;;;4.77;61.71;100845.59;4345001;32;33211;-92
2021/11/09 04:21:04;;;;;;;;;;;;;;;4.87;61.81;100863.87;4406609;32;33444;-93
2021/11/09 05:10:03;;;;;;;;;;;;;;;4.49;62.12;100904.97;4399539;32;33127;-93
2021/11/09 05:12:47;;;;;;;;;;;;;;;4.50;62.02;100904.09;4380359;32;32499;-95
2021/11/09 05:15:26;;;;;;;;;;;;;;;4.65;61.58;100905.78;4359596;32;32811;-93
2021/11/09 05:18:08;;;;;;;;;;;;;;;4.69;61.39;100905.78;4378798;32;32845;-93
2021/11/09 05:20:59;;;;;;;;;;;;;;;4.52;62.02;100899.75;4357214;32;33513;-93
2021/11/09 05:23:38;;;;;;;;;;;;;;;4.56;62.04;100912.81;4361807;32;32010;-94
2021/11/09 05:26:29;;;;;;;;;;;;;;;4.77;61.69;100917.12;4393627;32;33157;-95
2021/11/09 05:29:08;;;;;;;;;;;;;;;4.68;62.29;100921.50;4423030;32;33471;-94
2021/11/09 05:31:59;;;;;;;;;;;;;;;4.46;62.63;100928.50;4407223;32;32836;-93
2021/11/09 05:34:39;;;;;;;;;;;;;;;4.39;62.63;100934.59;4389069;32;32509;-95
2021/11/09 05:37:35;;;;;;;;;;;;;;;4.70;62.09;100938.94;4338568;33;33093;-94
2021/11/09 05:40:15;;;;;;;;;;;;;;;4.39;62.77;100935.47;4404324;32;33070;-93
2021/11/09 05:42:57;;;;;;;;;;;;;;;4.43;63.00;100947.69;4404168;32;34098;-93
2021/11/09 05:45:48;;;;;;;;;;;;;;;4.33;63.28;100941.59;4385397;32;32901;-93
2021/11/09 05:48:27;;;;;;;;;;;;;;;4.51;62.78;100945.94;4418781;32;32729;-94
2021/11/09 05:51:40;;;;;;;;;;;;;;;4.61;62.15;100955.53;4357040;32;34256;-90
2021/11/09 05:54:09;;;;;;;;;;;;;;;4.52;62.40;100970.34;4333964;32;33221;-90
2021/11/09 05:56:36;;;;;;;;;;;;;;;4.29;62.95;100976.44;4345550;32;33377;-90
2021/11/09 05:59:03;;;;;;;;;;;;;;;4.17;63.64;100984.25;4331636;32;32125;-90
2021/11/09 06:01:31;;;;;;;;;;;;;;;4.12;64.19;100993.84;4354832;32;32485;-89
2021/11/09 06:03:59;;;;;;;;;;;;;;;4.47;63.22;100990.41;4334392;32;32987;-86
2021/11/09 06:06:26;;;;;;;;;;;;;;;4.51;62.61;100992.13;4359327;32;33929;-90
2021/11/09 06:08:54;;;;;;;;;;;;;;;4.53;62.18;100993.88;4336868;32;34422;-91
2021/11/09 06:11:22;;;;;;;;;;;;;;;4.72;61.55;100997.38;4369423;32;34405;-91
2021/11/09 06:13:49;;;;;;;;;;;;;;;4.73;61.83;101003.47;4369285;32;33393;-91
2021/11/09 06:16:17;;;;;;;;;;;;;;;4.40;63.06;101013.06;4359872;32;33924;-91
2021/11/09 06:18:45;;;;;;;;;;;;;;;4.52;63.33;101025.28;4368511;32;33105;-88
2021/11/09 06:21:12;;;;;;;;;;;;;;;4.70;63.00;101030.53;4372406;32;33189;-88
2021/11/09 06:23:40;;;;;;;;;;;;;;;4.74;62.56;101037.47;4376318;32;33214;-88
2021/11/09 06:26:08;;;;;;;;;;;;;;;4.43;62.91;101047.06;4390408;32;32512;-88
2021/11/09 06:28:35;;;;;;;;;;;;;;;4.48;62.94;101055.78;4381261;32;33009;-91
2021/11/09 06:31:03;;;;;;;;;;;;;;;4.56;62.93;101056.69;4378058;32;34861;-86
2021/11/09 06:33:32;;;;;;;;;;;;;;;4.62;63.07;101063.66;4392248;32;34340;-93
2021/11/09 06:36:14;;;;;;;;;;;;;;;4.61;63.53;101054.06;4366549;32;32089;-93
2021/11/09 06:39:05;;;;;;;;;;;;;;;5.05;62.94;101064.50;4359668;32;32787;-93
2021/11/09 06:41:45;;;;;;;;;;;;;;;4.97;63.72;101061.03;4383220;32;32941;-93
2021/11/09 06:44:35;;;;;;;;;;;;;;;5.26;63.28;101074.06;4383325;32;28449;-92
2021/11/09 06:47:15;;;;;;;;;;;;;;;5.17;64.18;101079.31;4375592;32;32178;-92
2021/11/09 06:50:09;;;;;;;;;;;;;;;5.34;63.87;101085.41;4383601;32;34616;-91
2021/11/09 06:52:48;;;;;;;;;;;;;;;5.43;63.98;101086.28;4410995;32;33823;-93
2021/11/09 06:55:39;;;;;;;;;;;;;;;5.60;63.68;101090.63;4384941;32;34102;-93
2021/11/09 06:58:18;;;;;;;;;;;;;;;5.60;63.87;101108.97;4375044;32;32121;-93
2021/11/09 07:01:09;;;;;;;;;;;;;;;5.96;63.21;101108.88;4385321;32;32869;-93
2021/11/09 07:03:49;;;;;;;;;;;;;;;5.70;64.66;101117.66;4388060;32;34858;-93
2021/11/09 07:06:39;;;;;;;;;;;;;;;5.93;64.25;101117.59;4363709;32;32980;-91
2021/11/09 07:09:09;;;;;;;;;;;;;;;5.81;65.72;101121.13;4372380;32;32391;-89
2021/11/09 07:11:37;;;;;;;;;;;;;;;6.11;65.14;101129.78;4335893;32;33234;-89
2021/11/09 07:14:04;;;;;;;;;;;;;;;6.29;64.94;101129.69;4362820;32;33094;-90
2021/11/09 07:16:31;;;;;;;;;;;;;;;6.49;64.74;101126.09;4349980;32;33104;-91
2021/11/09 07:19:03;;;;;;;;;;;;;;;6.57;64.79;101135.66;4357967;32;32740;-91
2021/11/09 07:21:35;;;;;;;;;;;;;;;7.06;63.57;101137.94;4337078;33;33258;-90
2021/11/09 07:24:11;;;;;;;;;;;;;;;6.99;64.22;101138.00;4370127;32;33489;-91
2021/11/09 07:26:42;;;;;;;;;;;;;;;7.21;63.82;101141.31;4375090;32;34255;-91
2021/11/09 07:29:44;;;;;;;;;;;;;;;7.10;64.25;101152.78;4362624;32;32075;-91
2021/11/09 07:32:32;;;;;;;;;;;;;;;7.26;63.78;101148.28;4373729;32;33112;-90
2021/11/09 07:35:23;;;;;;;;;;;;;;;7.46;63.80;101160.41;4393211;32;33599;-90
2021/11/09 07:38:02;;;;;;;;;;;;;;;7.86;62.97;101166.97;4415675;32;32923;-91
2021/11/09 07:40:44;;;;;;;;;;;;;;;8.05;62.60;101161.50;4363445;32;32468;-90
2021/11/09 07:43:26;;;;;;;;;;;;;;;8.33;61.76;101157.66;4365850;32;33533;-91
2021/11/09 07:46:14;;;;;;;;;;;;;;;8.37;61.71;101169.94;4361862;32;34129;-93
2021/11/09 07:49:08;;;;;;;;;;;;;;;8.22;62.03;101180.62;4353822;32;33211;-93
2021/11/09 07:51:48;;;;;;;;;;;;;;;8.62;61.23;101172.22;4390260;32;32019;-93
2021/11/09 07:54:43;;;;;;;;;;;;;;;8.92;60.22;101173.53;4426022;32;32556;-92
2021/11/09 07:57:23;;;;;;;;;;;;;;;9.19;59.43;101180.16;4392120;32;33084;-92
2021/11/09 08:03:25;;;;;;;;;;;;;;;9.27;59.76;101188.81;4394036;32;32802;-91
2021/11/09 08:09:12;;;;;;;;;;;;;;;9.22;59.38;101194.16;4392445;32;32894;-93
2021/11/09 08:11:51;;;;;;;;;;;;;;;9.71;58.49;101195.09;4399081;32;32849;-92
2021/11/09 08:14:42;;;;;;;;;;;;;;;10.10;58.11;101196.09;4363659;32;32100;-93
2021/11/09 08:17:22;;;;;;;;;;;;;;;10.28;58.23;101201.97;4398111;32;33872;-92
2021/11/09 08:20:13;;;;;;;;;;;;;;;10.11;58.24;101196.97;4371152;32;33774;-92
2021/11/09 08:22:52;;;;;;;;;;;;;;;10.29;57.77;101207.22;4400827;32;33330;-92
2021/11/09 08:25:42;;;;;;;;;;;;;;;10.49;57.71;101202.41;4358484;32;32115;-91
2021/11/09 08:28:10;;;;;;;;;;;;;;;10.88;57.28;101210.37;4357043;32;33277;-91
2021/11/09 08:30:38;;;;;;;;;;;;;;;11.16;56.27;101207.97;4360863;32;33869;-92
2021/11/09 08:33:11;;;;;;;;;;;;;;;11.33;56.20;101220.75;4360299;32;33094;-91
2021/11/09 08:35:39;;;;;;;;;;;;;;;11.27;54.44;101215.63;4355107;32;32376;-91
2021/11/09 08:38:07;;;;;;;;;;;;;;;11.29;55.03;101229.66;4361504;32;33751;-91
2021/11/09 08:40:36;;;;;;;;;;;;;;;11.23;54.44;101235.97;4362299;32;33235;-92
2021/11/09 08:43:04;;;;;;;;;;;;;;;11.28;55.20;101243.81;4354566;32;33043;-92
2021/11/09 08:45:54;;;;;;;;;;;;;;;11.51;54.29;101241.47;4356045;32;32761;-92
2021/11/09 08:48:24;;;;;;;;;;;;;;;11.63;54.69;101244.72;4361655;32;33123;-91
2021/11/09 08:50:54;;;;;;;;;;;;;;;11.78;53.23;101261.09;4363303;32;33355;-92
2021/11/09 08:53:35;;;;;;;;;;;;;;;11.89;53.60;101255.56;4361423;32;33923;-91
2021/11/09 09:04:17;;;;;;;;;;;;;;;12.42;51.77;101273.56;4364590;32;32501;-91
2021/11/09 09:06:45;;;;;;;;;;;;;;;12.42;52.37;101269.12;4352141;32;32526;-92
2021/11/09 09:09:14;;;;;;;;;;;;;;;12.57;50.21;101273.97;4353476;32;33158;-90
2021/11/09 09:11:42;;;;;;;;;;;;;;;12.84;50.72;101271.47;4358933;32;33596;-91
2021/11/09 09:14:09;;;;;;;;;;;;;;;13.17;49.49;101271.34;4357708;32;33241;-91
2021/11/09 09:16:39;;;;;;;;;;;;;;;13.13;49.43;101281.19;4356481;32;31870;-91
2021/11/09 09:19:07;;;;;;;;;;;;;;;12.70;47.52;101278.94;4348466;32;33624;-91
2021/11/09 09:24:10;;;;;;;;;;;;;;;13.14;47.44;101279.41;4354595;32;33248;-91
2021/11/09 09:27:28;;;;;;;;;;;;;;;13.35;50.07;101284.06;4357919;32;33215;-91
2021/11/09 09:29:58;;;;;;;;;;;;;;;13.63;49.69;101277.91;4363374;32;32991;-91
2021/11/09 09:52:17;;;;;;;;;;;;;;;15.16;43.03;101304.31;4364466;32;33096;-91
2021/11/09 09:57:27;;;;;;;;;;;;;;;15.33;41.54;101312.50;4362540;32;32951;-91
2021/11/09 09:59:55;;;;;;;;;;;;;;;15.28;42.31;101309.16;4361306;32;32947;-91
2021/11/09 10:02:28;;;;;;;;;;;;;;;15.43;41.59;101311.22;4361527;32;32867;-91
2021/11/09 10:05:05;;;;;;;;;;;;;;;15.62;40.44;101304.25;4361633;32;33660;-91
2021/11/09 10:07:39;;;;;;;;;;;;;;;14.68;42.53;101305.25;4363767;32;34001;-91
2021/11/09 10:10:11;;;;;;;;;;;;;;;14.91;44.36;101299.94;4362385;32;32397;-91
2021/11/09 10:12:44;;;;;;;;;;;;;;;15.30;44.58;101307.31;4361769;32;33237;-92
2021/11/09 10:15:13;;;;;;;;;;;;;;;15.58;40.96;101304.44;4363440;32;34685;-91
2021/11/09 10:17:43;;;;;;;;;;;;;;;15.73;43.35;101311.81;4362846;32;33510;-91
2021/11/09 10:20:12;;;;;;;;;;;;;;;16.17;39.35;101305.53;4361704;32;32466;-92
2021/11/09 10:22:53;;;;;;;;;;;;;;;16.13;39.98;101305.66;4362110;32;34505;-92
2021/11/09 10:25:21;;;;;;;;;;;;;;;15.94;40.03;101310.03;4361160;32;33653;-91
2021/11/09 10:27:51;;;;;;;;;;;;;;;15.95;40.09;101310.91;4362548;32;33497;-92
2021/11/09 10:30:24;;;;;;;;;;;;;;;15.78;40.43;101303.63;4349536;32;32442;-92
2021/11/09 10:32:54;;;;;;;;;;;;;;;16.20;39.15;101318.75;4355043;32;33021;-91
2021/11/09 10:35:22;;;;;;;;;;;;;;;15.67;43.31;101316.53;4362089;32;33285;-91
2021/11/09 10:37:51;;;;;;;;;;;;;;;15.83;44.74;101317.63;4362438;32;33321;-91
2021/11/09 10:40:26;;;;;;;;;;;;;;;16.07;39.55;101324.59;4361622;32;33320;-92
2021/11/09 10:42:58;;;;;;;;;;;;;;;16.27;40.63;101312.22;4360829;32;34293;-91
2021/11/09 10:45:28;;;;;;;;;;;;;;;16.34;40.17;101319.03;4359994;32;33296;-92
2021/11/09 10:47:57;;;;;;;;;;;;;;;16.57;40.65;101315.34;4350184;32;33468;-91
2021/11/09 10:50:27;;;;;;;;;;;;;;;16.88;39.86;101312.19;4354091;32;32990;-91
2021/11/09 10:52:58;;;;;;;;;;;;;;;16.52;36.86;101320.88;4362736;32;33845;-92
2021/11/09 10:55:44;;;;;;;;;;;;;;;16.69;39.36;101313.91;4358587;32;33069;-91
2021/11/09 11:06:17;;;;;;;;;;;;;;;17.02;40.77;101327.56;4361754;32;32983;-92
2021/11/09 11:08:46;;;;;;;;;;;;;;;17.28;38.05;101323.66;4360695;32;32714;-92
2021/11/09 11:11:15;;;;;;;;;;;;;;;17.34;36.65;101323.38;4355750;32;32120;-91
2021/11/09 11:13:44;;;;;;;;;;;;;;;17.65;33.80;101318.28;4361447;32;33533;-91
2021/11/09 11:16:13;;;;;;;;;;;;;;;17.89;35.21;101318.91;4363005;32;33265;-92
2021/11/09 11:18:43;;;;;;;;;;;;;;;17.34;35.66;101324.25;4361905;32;33266;-91
2021/11/09 11:21:13;;;;;;;;;;;;;;;17.64;35.87;101315.69;4355729;32;33478;-92
2021/11/09 11:23:42;;;;;;;;;;;;;;;17.46;36.07;101322.78;4359463;32;33583;-91
2021/11/09 11:26:15;;;;;;;;;;;;;;;17.20;34.84;101331.19;4354909;32;33593;-91
2021/11/09 11:28:44;;;;;;;;;;;;;;;17.00;35.14;101332.97;4358348;32;33114;-92
2021/11/09 11:31:13;;;;;;;;;;;;;;;17.53;33.65;101329.56;4359169;32;34366;-91
2021/11/09 11:33:41;;;;;;;;;;;;;;;17.50;35.61;101321.69;4339551;32;34321;-92
2021/11/09 11:36:09;;;;;;;;;;;;;;;17.11;35.86;101327.12;4360549;32;33901;-92
2021/11/09 11:38:40;;;;;;;;;;;;;;;17.01;35.30;101325.84;4359474;32;32740;-92
2021/11/09 11:41:35;;;;;;;;;;;;;;;17.22;35.94;101331.97;4352324;32;33527;-92
2021/11/09 11:44:04;;;;;;;;;;;;;;;17.24;35.48;101338.13;4360043;32;32828;-92
2021/11/09 11:46:53;;;;;;;;;;;;;;;17.05;35.81;101328.28;4350704;32;33547;-92
2021/11/09 11:49:22;;;;;;;;;;;;;;;17.17;35.55;101325.97;4361545;32;32868;-91
2021/11/09 11:52:36;;;;;;;;;;;;;;;17.30;35.41;101329.81;4352848;32;33325;-91
2021/11/09 11:55:18;;;;;;;;;;;;;;;16.96;36.69;101334.03;4357865;32;33223;-92
2021/11/09 11:58:10;;;;;;;;;;;;;;;16.59;35.63;101338.34;4362545;32;33214;-91
2021/11/09 12:00:42;;;;;;;;;;;;;;;16.62;34.95;101332.88;4361698;32;34666;-92
2021/11/09 12:03:18;;;;;;;;;;;;;;;16.36;36.10;101341.13;4356219;32;31639;-92
2021/11/09 12:06:00;;;;;;;;;;;;;;;16.40;35.70;101334.75;4361117;32;33132;-92
2021/11/09 12:08:49;;;;;;;;;;;;;;;16.80;35.12;101333.84;4360859;32;32684;-91
2021/11/09 12:11:22;;;;;;;;;;;;;;;17.17;34.63;101337.50;4349355;32;35257;-91
2021/11/09 12:13:57;;;;;;;;;;;;;;;17.26;35.69;101346.91;4358609;32;31563;-92
2021/11/09 12:16:39;;;;;;;;;;;;;;;17.24;35.94;101348.78;4361062;32;33084;-93
2021/11/09 12:19:35;;;;;;;;;;;;;;;17.14;35.33;101348.34;4354219;32;33015;-92
2021/11/09 12:22:43;;;;;;;;;;;;;;;16.97;36.16;101343.78;4343595;32;34020;-92
2021/11/09 12:25:37;;;;;;;;;;;;;;;17.22;35.44;101351.50;4360134;32;33235;-92
2021/11/09 12:28:09;;;;;;;;;;;;;;;17.50;34.13;101345.72;4361354;32;33147;-92
2021/11/09 12:30:40;;;;;;;;;;;;;;;17.24;35.33;101348.78;4359252;32;33342;-92
2021/11/09 12:33:15;;;;;;;;;;;;;;;17.22;36.54;101345.31;4357096;32;33500;-92
2021/11/09 12:36:02;;;;;;;;;;;;;;;17.11;35.83;101360.03;4360013;32;32834;-92
2021/11/09 12:38:33;;;;;;;;;;;;;;;16.78;37.04;101350.88;4372418;32;34443;-92
2021/11/09 12:41:12;;;;;;;;;;;;;;;16.81;35.94;101356.09;4371688;32;34903;-92
2021/11/09 12:43:45;;;;;;;;;;;;;;;16.78;36.54;101351.75;4356283;32;33287;-91
2021/11/09 12:46:31;;;;;;;;;;;;;;;16.67;36.45;101356.66;4399732;32;32339;-91
2021/11/09 12:49:28;;;;;;;;;;;;;;;16.30;38.08;101360.06;4412224;32;33133;-90
2021/11/09 12:52:01;;;;;;;;;;;;;;;16.44;37.38;101360.34;4400848;32;33558;-90
2021/11/09 12:54:29;;;;;;;;;;;;;;;16.24;37.31;101355.87;4398634;32;33411;-90
2021/11/09 12:57:01;;;;;;;;;;;;;;;16.50;37.55;101364.53;4406642;32;32079;-89
2021/11/09 12:59:45;;;;;;;;;;;;;;;16.56;37.09;101365.13;4385186;32;33760;-90
2021/11/09 13:07:18;;;;;;;;;;;;;;;15.92;39.37;101386.50;4406606;32;32589;-91
2021/11/09 13:10:10;;;;;;;;;;;;;;;15.99;39.21;101385.31;4405749;32;32824;-90
2021/11/09 13:12:41;;;;;;;;;;;;;;;15.72;38.75;101394.44;4401861;32;32881;-90
2021/11/09 13:15:26;;;;;;;;;;;;;;;15.17;40.08;101391.19;4403120;32;33321;-90
2021/11/09 13:17:57;;;;;;;;;;;;;;;15.87;39.42;101391.16;4412959;32;31895;-90
2021/11/09 13:22:58;;;;;;;;;;;;;;;16.35;38.70;101390.91;4399710;32;34454;-90
2021/11/09 13:25:36;;;;;;;;;;;;;;;16.26;39.12;101393.97;4398319;32;32757;-90
2021/11/09 13:28:07;;;;;;;;;;;;;;;16.50;38.52;101402.72;4398413;32;32725;-90
2021/11/09 13:30:51;;;;;;;;;;;;;;;16.34;38.58;101399.00;4401131;32;32967;-90
2021/11/09 13:33:24;;;;;;;;;;;;;;;16.60;38.28;101406.72;4413510;32;33749;-90
2021/11/09 13:35:53;;;;;;;;;;;;;;;15.95;39.10;101402.38;4400532;32;33444;-89
2021/11/09 13:38:29;;;;;;;;;;;;;;;16.13;38.75;101409.59;4419255;32;32343;-90
2021/11/09 13:40:59;;;;;;;;;;;;;;;16.11;39.31;101411.47;4400402;32;33466;-90
2021/11/09 13:43:29;;;;;;;;;;;;;;;16.26;39.42;101406.44;4420859;32;33146;-90
2021/11/09 13:46:04;;;;;;;;;;;;;;;15.61;40.64;101419.63;4411176;32;33192;-90
2021/11/09 13:48:33;;;;;;;;;;;;;;;15.98;39.92;101417.34;4403612;32;32496;-90
2021/11/09 13:51:03;;;;;;;;;;;;;;;16.15;39.55;101424.69;4415400;32;34184;-88
2021/11/09 13:53:49;;;;;;;;;;;;;;;15.51;40.35;101418.25;4415984;32;34241;-89
2021/11/09 13:56:18;;;;;;;;;;;;;;;15.21;41.01;101432.75;4409522;32;32930;-90
2021/11/09 13:59:07;;;;;;;;;;;;;;;15.39;40.62;101436.50;4421405;32;32247;-90
2021/11/09 14:13:20;;;;;;;;;;;;;;;14.99;40.52;101446.81;4403092;32;33348;-90
2021/11/09 14:18:47;;;;;;;;;;;;;;;15.05;41.03;101446.59;4405809;32;33288;-88
2021/11/09 14:21:15;;;;;;;;;;;;;;;14.54;42.19;101451.94;4408241;32;32995;-87
2021/11/09 14:23:44;;;;;;;;;;;;;;;14.96;41.78;101446.06;4382986;32;33071;-87
2021/11/09 14:26:15;;;;;;;;;;;;;;;15.13;41.03;101453.44;4409647;32;35025;-89
2021/11/09 14:28:43;;;;;;;;;;;;;;;15.00;41.56;101450.31;4410805;32;32706;-88
2021/11/09 14:31:14;;;;;;;;;;;;;;;14.61;43.18;101456.12;4410712;32;32150;-87
2021/11/09 14:33:41;;;;;;;;;;;;;;;14.94;42.29;101456.75;4423365;32;34279;-90
2021/11/09 14:36:32;;;;;;;;;;;;;;;14.78;42.57;101459.06;4423822;32;33118;-88
2021/11/09 14:39:31;;;;;;;;;;;;;;;14.79;43.01;101462.59;4425617;32;32672;-91
2021/11/09 14:43:19;;;;;;;;;;;;;;;14.43;44.06;101468.22;4394120;32;34122;-90
2021/11/09 14:46:12;;;;;;;;;;;;;;;14.69;43.49;101470.03;4372581;32;32963;-91
2021/11/09 14:49:00;;;;;;;;;;;;;;;14.40;44.54;101478.09;4377326;32;33130;-90
2021/11/09 14:52:07;;;;;;;;;;;;;;;14.43;44.64;101483.28;4384958;32;32493;-89
2021/11/09 14:54:50;;;;;;;;;;;;;;;14.53;44.41;101476.78;4447881;32;33867;-92
2021/11/09 14:57:40;;;;;;;;;;;;;;;14.41;45.17;101486.00;4404714;32;33403;-91
2021/11/09 15:04:51;;;;;;;;;;;;;;;14.13;46.17;101486.00;4361316;32;33444;-91
2021/11/09 15:07:42;;;;;;;;;;;;;;;13.82;47.06;101486.09;4371469;32;33612;-90
2021/11/09 15:13:44;;;;;;;;;;;;;;;13.28;48.36;101502.69;4394029;32;32585;-91
2021/11/09 15:28:58;;;;;;;;;;;;;;;13.22;48.46;101509.06;4369632;32;32851;-90
2021/11/09 15:37:54;;;;;;;;;;;;;;;12.52;50.17;101522.31;4379999;32;33976;-93
2021/11/09 15:40:48;;;;;;;;;;;;;;;12.54;50.05;101533.75;4385287;32;33196;-91
2021/11/09 15:43:29;;;;;;;;;;;;;;;12.54;49.94;101525.81;4371251;32;33262;-92
2021/11/09 15:46:19;;;;;;;;;;;;;;;12.51;49.89;101536.47;4398856;32;33797;-91
2021/11/09 15:48:59;;;;;;;;;;;;;;;12.50;49.81;101539.16;4420600;32;34455;-93
2021/11/09 15:55:54;;;;;;;;;;;;;;;12.23;50.53;101549.47;4366981;32;34272;-94
2021/11/09 15:58:24;;;;;;;;;;;;;;;12.08;51.00;101554.25;4377338;32;32907;-91
2021/11/09 16:01:04;;;;;;;;;;;;;;;11.99;51.28;101558.84;4404484;32;33037;-91
2021/11/09 16:03:55;;;;;;;;;;;;;;;11.90;51.45;101560.81;4388385;32;33105;-92
2021/11/09 16:06:34;;;;;;;;;;;;;;;12.01;51.08;101564.09;4362437;32;32530;-92
2021/11/09 16:09:27;;;;;;;;;;;;;;;11.86;51.63;101562.66;4381653;32;32694;-92
2021/11/09 16:12:06;;;;;;;;;;;;;;;11.76;51.87;101563.72;4412657;32;34137;-92
2021/11/09 16:14:59;;;;;;;;;;;;;;;11.59;52.40;101563.19;4398812;32;32932;-91
2021/11/09 16:17:39;;;;;;;;;;;;;;;11.58;52.53;101564.06;4396719;32;33132;-92
2021/11/09 16:20:31;;;;;;;;;;;;;;;11.62;52.31;101581.63;4388946;32;32680;-90
2021/11/09 16:23:11;;;;;;;;;;;;;;;11.52;52.47;101579.16;4426622;32;33083;-93
2021/11/09 16:25:50;;;;;;;;;;;;;;;11.42;52.72;101588.19;4414024;32;32775;-88
2021/11/09 16:28:18;;;;;;;;;;;;;;;11.25;53.34;101587.59;4402576;32;32413;-88
2021/11/09 16:30:49;;;;;;;;;;;;;;;11.08;53.72;101593.22;4414084;32;34248;-86
2021/11/09 16:38:35;;;;;;;;;;;;;;;10.88;54.34;101611.19;4415439;32;32222;-89
2021/11/09 16:41:05;;;;;;;;;;;;;;;10.57;55.35;101613.41;4415506;32;32045;-91
2021/11/09 16:44:01;;;;;;;;;;;;;;;10.85;54.39;101617.38;4390119;32;32545;-91
2021/11/09 16:46:55;;;;;;;;;;;;;;;10.74;54.35;101619.31;4390226;32;32445;-90
2021/11/09 16:50:16;;;;;;;;;;;;;;;10.82;53.98;101627.13;4403482;32;34691;-92
2021/11/09 16:52:54;;;;;;;;;;;;;;;10.80;53.89;101629.78;4416003;32;32996;-92
2021/11/09 17:11:21;;;;;;;;;;;;;;;10.06;56.36;101661.56;4362960;32;32345;-92
2021/11/09 18:16:06;;;;;;;;;;;;;;;8.22;60.71;101672.69;4407938;32;32068;-89